Terminal Aerodrome Forecast
Issued by NWS Charleston, WV

Current Version | Previous Version | Graphics & Text | Print | Product List | Glossary On
Versions: 1 2 3 4 5 6 7 8 9 10 11 12 13 14 15 16 17 18 19 20 21 22 23 24 25 26 27 28
000
FTUS41 KRLX 310547
TAFBKW
TAF
KBKW 310547Z 3106/0106 17005KT P6SM SCT080
     FM311100 17004KT P6SM BKN040
     FM311800 22008KT P6SM VCTS BKN035CB
     FM312000 20006KT 4SM TSRA BR BKN030CB
     FM312300 18005KT 5SM SHRA BR BKN035 BKN080
     FM010400 20004KT 5SM BR BKN035=

USA.gov is the U.S. government's official web portal to all federal, state and local government web resources and services.